Cathedral City, California
Current Conditions -  °F | °C
As of 7:53 AM on Thursday 23 Oct 2014 (Local Time) from KPSP Reporting Station
Few Clouds Few Clouds  
Wind Chill: 72°   Ceiling: Unl
Heat Index: 72°   Visibility: 10mi
Dew Point: 28°   Wind: 8mph
Humidity: 20%   Direction: 320°NW
Pressure: 29.98"   Gusts: NA
Location:  33.78°N, 116.46°W
Report Text: KPSP 231453Z 32007KT 10SM FEW250 22/M02 A2998 RMK AO2 SLP151 T02221022 53015 $
Loading
Personal Weather Stations






























Interactive Weather Map
Tropical Storm Tracking
New forecast layout! Learn more

10-Day Weather Forecast

Advertisements
Track Severe Weather on mobile